sensor_id;sensor_type;location;lat;lon;timestamp;P1;durP1;ratioP1;P2;durP2;ratioP2
16862;SDS011;52193;48.216;-1.698;2023-07-16T00:00:59;19.48;;;9.02;;
16862;SDS011;52193;48.216;-1.698;2023-07-16T00:03:26;14.15;;;8.68;;
16862;SDS011;52193;48.216;-1.698;2023-07-16T00:05:53;16.83;;;8.55;;
16862;SDS011;52193;48.216;-1.698;2023-07-16T00:08:21;16.27;;;8.95;;
16862;SDS011;52193;48.216;-1.698;2023-07-16T00:10:50;13.57;;;8.00;;
16862;SDS011;52193;48.216;-1.698;2023-07-16T00:13:17;19.60;;;9.63;;
16862;SDS011;52193;48.216;-1.698;2023-07-16T00:15:43;14.38;;;8.75;;
16862;SDS011;52193;48.216;-1.698;2023-07-16T00:18:10;15.65;;;9.30;;
16862;SDS011;52193;48.216;-1.698;2023-07-16T00:20:37;16.83;;;9.20;;
16862;SDS011;52193;48.216;-1.698;2023-07-16T00:23:04;13.55;;;7.93;;
16862;SDS011;52193;48.216;-1.698;2023-07-16T00:25:31;16.27;;;9.32;;
16862;SDS011;52193;48.216;-1.698;2023-07-16T00:28:01;16.90;;;9.07;;
16862;SDS011;52193;48.216;-1.698;2023-07-16T00:30:28;16.70;;;9.32;;
16862;SDS011;52193;48.216;-1.698;2023-07-16T00:32:55;19.15;;;9.93;;
16862;SDS011;52193;48.216;-1.698;2023-07-16T00:35:22;16.58;;;9.68;;
16862;SDS011;52193;48.216;-1.698;2023-07-16T00:37:49;13.93;;;9.25;;
16862;SDS011;52193;48.216;-1.698;2023-07-16T00:40:16;13.70;;;8.32;;
16862;SDS011;52193;48.216;-1.698;2023-07-16T00:42:43;16.63;;;9.52;;
16862;SDS011;52193;48.216;-1.698;2023-07-16T00:45:12;14.52;;;9.05;;
16862;SDS011;52193;48.216;-1.698;2023-07-16T00:47:40;19.13;;;9.75;;
16862;SDS011;52193;48.216;-1.698;2023-07-16T00:50:08;13.85;;;8.90;;
16862;SDS011;52193;48.216;-1.698;2023-07-16T00:52:36;12.30;;;8.00;;
16862;SDS011;52193;48.216;-1.698;2023-07-16T00:55:05;16.52;;;9.50;;
16862;SDS011;52193;48.216;-1.698;2023-07-16T00:57:34;16.05;;;9.55;;
16862;SDS011;52193;48.216;-1.698;2023-07-16T01:00:01;18.40;;;10.40;;
16862;SDS011;52193;48.216;-1.698;2023-07-16T01:02:31;16.60;;;10.30;;
16862;SDS011;52193;48.216;-1.698;2023-07-16T01:04:58;13.32;;;9.00;;
16862;SDS011;52193;48.216;-1.698;2023-07-16T01:07:25;15.55;;;9.82;;
16862;SDS011;52193;48.216;-1.698;2023-07-16T01:09:55;19.33;;;9.98;;
16862;SDS011;52193;48.216;-1.698;2023-07-16T01:12:23;17.95;;;9.40;;
16862;SDS011;52193;48.216;-1.698;2023-07-16T01:14:51;15.68;;;9.02;;
16862;SDS011;52193;48.216;-1.698;2023-07-16T01:17:18;14.93;;;9.63;;
16862;SDS011;52193;48.216;-1.698;2023-07-16T01:19:47;12.38;;;8.73;;
16862;SDS011;52193;48.216;-1.698;2023-07-16T01:22:18;17.40;;;10.10;;
16862;SDS011;52193;48.216;-1.698;2023-07-16T01:25:17;13.60;;;9.48;;
16862;SDS011;52193;48.216;-1.698;2023-07-16T01:28:08;15.90;;;10.13;;
16862;SDS011;52193;48.216;-1.698;2023-07-16T01:30:49;15.55;;;10.60;;
16862;SDS011;52193;48.216;-1.698;2023-07-16T01:33:18;16.27;;;9.70;;
16862;SDS011;52193;48.216;-1.698;2023-07-16T01:35:47;15.77;;;10.52;;
16862;SDS011;52193;48.216;-1.698;2023-07-16T01:38:14;17.75;;;10.43;;
16862;SDS011;52193;48.216;-1.698;2023-07-16T01:40:43;17.05;;;10.13;;
16862;SDS011;52193;48.216;-1.698;2023-07-16T01:43:10;16.27;;;9.77;;
16862;SDS011;52193;48.216;-1.698;2023-07-16T01:45:37;11.10;;;8.27;;
16862;SDS011;52193;48.216;-1.698;2023-07-16T01:48:08;14.23;;;8.98;;
16862;SDS011;52193;48.216;-1.698;2023-07-16T01:50:43;16.25;;;10.18;;
16862;SDS011;52193;48.216;-1.698;2023-07-16T01:53:09;11.07;;;8.90;;
16862;SDS011;52193;48.216;-1.698;2023-07-16T01:55:36;21.48;;;10.65;;
16862;SDS011;52193;48.216;-1.698;2023-07-16T01:58:03;19.13;;;10.43;;
16862;SDS011;52193;48.216;-1.698;2023-07-16T02:00:31;15.25;;;9.15;;
16862;SDS011;52193;48.216;-1.698;2023-07-16T02:02:58;18.75;;;10.52;;
16862;SDS011;52193;48.216;-1.698;2023-07-16T02:05:26;16.13;;;10.57;;
16862;SDS011;52193;48.216;-1.698;2023-07-16T02:07:53;17.67;;;10.48;;
16862;SDS011;52193;48.216;-1.698;2023-07-16T02:10:20;17.63;;;9.88;;
16862;SDS011;52193;48.216;-1.698;2023-07-16T02:12:47;19.85;;;11.15;;
16862;SDS011;52193;48.216;-1.698;2023-07-16T02:15:14;22.05;;;11.13;;
16862;SDS011;52193;48.216;-1.698;2023-07-16T02:17:42;16.65;;;9.90;;
16862;SDS011;52193;48.216;-1.698;2023-07-16T02:20:10;17.25;;;9.85;;
16862;SDS011;52193;48.216;-1.698;2023-07-16T02:22:38;14.68;;;8.93;;
16862;SDS011;52193;48.216;-1.698;2023-07-16T02:25:06;18.40;;;10.07;;
16862;SDS011;52193;48.216;-1.698;2023-07-16T02:27:33;15.57;;;10.07;;
16862;SDS011;52193;48.216;-1.698;2023-07-16T02:30:00;14.05;;;9.30;;
16862;SDS011;52193;48.216;-1.698;2023-07-16T02:32:27;16.80;;;9.98;;
16862;SDS011;52193;48.216;-1.698;2023-07-16T02:34:54;13.13;;;8.98;;
16862;SDS011;52193;48.216;-1.698;2023-07-16T02:37:21;14.77;;;9.85;;
16862;SDS011;52193;48.216;-1.698;2023-07-16T02:39:49;20.90;;;10.77;;
16862;SDS011;52193;48.216;-1.698;2023-07-16T02:42:16;14.20;;;9.07;;
16862;SDS011;52193;48.216;-1.698;2023-07-16T02:44:43;18.35;;;10.40;;
16862;SDS011;52193;48.216;-1.698;2023-07-16T02:47:10;16.27;;;10.18;;
16862;SDS011;52193;48.216;-1.698;2023-07-16T02:49:37;16.08;;;10.05;;
16862;SDS011;52193;48.216;-1.698;2023-07-16T02:52:04;15.20;;;10.13;;
16862;SDS011;52193;48.216;-1.698;2023-07-16T02:54:32;15.00;;;10.27;;
16862;SDS011;52193;48.216;-1.698;2023-07-16T02:57:00;16.40;;;10.13;;
16862;SDS011;52193;48.216;-1.698;2023-07-16T02:59:27;19.60;;;10.13;;
16862;SDS011;52193;48.216;-1.698;2023-07-16T03:01:54;14.38;;;9.23;;
16862;SDS011;52193;48.216;-1.698;2023-07-16T03:04:21;15.43;;;10.73;;
16862;SDS011;52193;48.216;-1.698;2023-07-16T03:06:48;14.18;;;9.88;;
16862;SDS011;52193;48.216;-1.698;2023-07-16T03:09:15;14.02;;;9.77;;
16862;SDS011;52193;48.216;-1.698;2023-07-16T03:11:42;18.58;;;10.00;;
16862;SDS011;52193;48.216;-1.698;2023-07-16T03:14:10;12.88;;;9.68;;
16862;SDS011;52193;48.216;-1.698;2023-07-16T03:16:37;17.25;;;10.15;;
16862;SDS011;52193;48.216;-1.698;2023-07-16T03:19:04;19.30;;;11.63;;
16862;SDS011;52193;48.216;-1.698;2023-07-16T03:21:31;16.02;;;10.27;;
16862;SDS011;52193;48.216;-1.698;2023-07-16T03:23:58;16.73;;;10.55;;
16862;SDS011;52193;48.216;-1.698;2023-07-16T03:26:25;20.42;;;11.35;;
16862;SDS011;52193;48.216;-1.698;2023-07-16T03:28:52;17.48;;;10.35;;
16862;SDS011;52193;48.216;-1.698;2023-07-16T03:31:21;18.90;;;11.43;;
16862;SDS011;52193;48.216;-1.698;2023-07-16T03:33:47;17.85;;;11.02;;
16862;SDS011;52193;48.216;-1.698;2023-07-16T03:36:14;22.10;;;12.18;;
16862;SDS011;52193;48.216;-1.698;2023-07-16T03:38:41;20.10;;;11.70;;
16862;SDS011;52193;48.216;-1.698;2023-07-16T03:41:08;22.55;;;11.48;;
16862;SDS011;52193;48.216;-1.698;2023-07-16T03:43:35;15.23;;;11.00;;
16862;SDS011;52193;48.216;-1.698;2023-07-16T03:46:02;20.27;;;12.32;;
16862;SDS011;52193;48.216;-1.698;2023-07-16T03:48:33;19.83;;;11.43;;
16862;SDS011;52193;48.216;-1.698;2023-07-16T03:51:00;14.70;;;10.73;;
16862;SDS011;52193;48.216;-1.698;2023-07-16T03:53:27;15.50;;;9.98;;
16862;SDS011;52193;48.216;-1.698;2023-07-16T03:55:54;20.10;;;11.10;;
16862;SDS011;52193;48.216;-1.698;2023-07-16T03:58:21;12.85;;;9.20;;
16862;SDS011;52193;48.216;-1.698;2023-07-16T04:00:48;14.23;;;10.70;;
16862;SDS011;52193;48.216;-1.698;2023-07-16T04:03:15;17.05;;;10.23;;
16862;SDS011;52193;48.216;-1.698;2023-07-16T04:05:44;15.55;;;10.35;;
16862;SDS011;52193;48.216;-1.698;2023-07-16T04:08:10;16.02;;;10.82;;
16862;SDS011;52193;48.216;-1.698;2023-07-16T04:10:38;14.65;;;10.48;;
16862;SDS011;52193;48.216;-1.698;2023-07-16T04:13:05;15.68;;;10.80;;
16862;SDS011;52193;48.216;-1.698;2023-07-16T04:15:32;17.20;;;10.63;;
16862;SDS011;52193;48.216;-1.698;2023-07-16T04:17:59;17.67;;;10.77;;
16862;SDS011;52193;48.216;-1.698;2023-07-16T04:20:25;17.23;;;11.80;;
16862;SDS011;52193;48.216;-1.698;2023-07-16T04:22:55;18.15;;;11.20;;
16862;SDS011;52193;48.216;-1.698;2023-07-16T04:25:22;20.33;;;12.75;;
16862;SDS011;52193;48.216;-1.698;2023-07-16T04:27:49;15.95;;;11.43;;
16862;SDS011;52193;48.216;-1.698;2023-07-16T04:30:16;19.65;;;11.25;;
16862;SDS011;52193;48.216;-1.698;2023-07-16T04:32:42;22.00;;;13.02;;
16862;SDS011;52193;48.216;-1.698;2023-07-16T04:35:09;19.35;;;12.25;;
16862;SDS011;52193;48.216;-1.698;2023-07-16T04:37:36;14.32;;;10.98;;
16862;SDS011;52193;48.216;-1.698;2023-07-16T04:40:05;14.68;;;11.75;;
16862;SDS011;52193;48.216;-1.698;2023-07-16T04:42:34;20.75;;;12.40;;
16862;SDS011;52193;48.216;-1.698;2023-07-16T04:45:01;21.83;;;12.98;;
16862;SDS011;52193;48.216;-1.698;2023-07-16T04:47:28;23.63;;;12.70;;
16862;SDS011;52193;48.216;-1.698;2023-07-16T04:49:54;17.80;;;11.02;;
16862;SDS011;52193;48.216;-1.698;2023-07-16T04:52:21;18.60;;;11.30;;
16862;SDS011;52193;48.216;-1.698;2023-07-16T04:54:48;17.60;;;10.93;;
16862;SDS011;52193;48.216;-1.698;2023-07-16T04:57:17;18.08;;;11.18;;
16862;SDS011;52193;48.216;-1.698;2023-07-16T04:59:44;14.25;;;10.00;;
16862;SDS011;52193;48.216;-1.698;2023-07-16T05:02:10;16.60;;;11.48;;
16862;SDS011;52193;48.216;-1.698;2023-07-16T05:04:39;16.98;;;12.63;;
16862;SDS011;52193;48.216;-1.698;2023-07-16T05:07:06;21.33;;;13.45;;
16862;SDS011;52193;48.216;-1.698;2023-07-16T05:09:33;22.48;;;12.95;;
16862;SDS011;52193;48.216;-1.698;2023-07-16T05:12:00;19.00;;;12.15;;
16862;SDS011;52193;48.216;-1.698;2023-07-16T05:14:28;21.27;;;12.30;;
16862;SDS011;52193;48.216;-1.698;2023-07-16T05:16:55;16.88;;;11.90;;
16862;SDS011;52193;48.216;-1.698;2023-07-16T05:19:22;16.73;;;11.73;;
16862;SDS011;52193;48.216;-1.698;2023-07-16T05:21:49;16.60;;;12.43;;
16862;SDS011;52193;48.216;-1.698;2023-07-16T05:24:16;22.45;;;13.52;;
16862;SDS011;52193;48.216;-1.698;2023-07-16T05:26:43;19.05;;;12.95;;
16862;SDS011;52193;48.216;-1.698;2023-07-16T05:29:10;14.57;;;11.30;;
16862;SDS011;52193;48.216;-1.698;2023-07-16T05:31:38;21.38;;;12.63;;
16862;SDS011;52193;48.216;-1.698;2023-07-16T05:34:05;17.35;;;12.60;;
16862;SDS011;52193;48.216;-1.698;2023-07-16T05:36:32;20.25;;;12.27;;
16862;SDS011;52193;48.216;-1.698;2023-07-16T05:38:59;21.20;;;13.00;;
16862;SDS011;52193;48.216;-1.698;2023-07-16T05:41:26;20.70;;;13.10;;
16862;SDS011;52193;48.216;-1.698;2023-07-16T05:43:53;12.88;;;11.10;;
16862;SDS011;52193;48.216;-1.698;2023-07-16T05:46:20;17.08;;;11.18;;
16862;SDS011;52193;48.216;-1.698;2023-07-16T05:48:48;17.20;;;11.90;;
16862;SDS011;52193;48.216;-1.698;2023-07-16T05:51:15;16.73;;;12.00;;
16862;SDS011;52193;48.216;-1.698;2023-07-16T05:53:42;15.73;;;12.30;;
16862;SDS011;52193;48.216;-1.698;2023-07-16T05:56:09;18.70;;;12.45;;
16862;SDS011;52193;48.216;-1.698;2023-07-16T05:58:35;21.85;;;12.90;;
16862;SDS011;52193;48.216;-1.698;2023-07-16T06:01:02;13.65;;;11.43;;
16862;SDS011;52193;48.216;-1.698;2023-07-16T06:03:29;16.60;;;11.63;;
16862;SDS011;52193;48.216;-1.698;2023-07-16T06:05:58;17.08;;;12.27;;
16862;SDS011;52193;48.216;-1.698;2023-07-16T06:08:24;25.00;;;13.10;;
16862;SDS011;52193;48.216;-1.698;2023-07-16T06:10:51;23.90;;;13.38;;
16862;SDS011;52193;48.216;-1.698;2023-07-16T06:13:18;19.38;;;12.52;;
16862;SDS011;52193;48.216;-1.698;2023-07-16T06:15:45;19.98;;;12.73;;
16862;SDS011;52193;48.216;-1.698;2023-07-16T06:18:13;17.90;;;12.93;;
16862;SDS011;52193;48.216;-1.698;2023-07-16T06:20:43;19.52;;;13.05;;
16862;SDS011;52193;48.216;-1.698;2023-07-16T06:23:11;19.13;;;12.25;;
16862;SDS011;52193;48.216;-1.698;2023-07-16T06:25:38;22.88;;;13.60;;
16862;SDS011;52193;48.216;-1.698;2023-07-16T06:28:09;20.83;;;12.73;;
16862;SDS011;52193;48.216;-1.698;2023-07-16T06:30:36;17.85;;;12.68;;
16862;SDS011;52193;48.216;-1.698;2023-07-16T06:33:04;15.30;;;11.18;;
16862;SDS011;52193;48.216;-1.698;2023-07-16T06:35:31;19.88;;;12.10;;
16862;SDS011;52193;48.216;-1.698;2023-07-16T06:37:58;18.10;;;11.55;;
16862;SDS011;52193;48.216;-1.698;2023-07-16T06:40:26;17.52;;;12.10;;
16862;SDS011;52193;48.216;-1.698;2023-07-16T06:42:55;18.23;;;11.40;;
16862;SDS011;52193;48.216;-1.698;2023-07-16T06:45:22;22.30;;;11.80;;
16862;SDS011;52193;48.216;-1.698;2023-07-16T06:47:49;20.65;;;11.25;;
16862;SDS011;52193;48.216;-1.698;2023-07-16T06:50:16;19.00;;;10.90;;
16862;SDS011;52193;48.216;-1.698;2023-07-16T06:52:42;16.20;;;11.00;;
16862;SDS011;52193;48.216;-1.698;2023-07-16T06:55:09;19.90;;;11.40;;
16862;SDS011;52193;48.216;-1.698;2023-07-16T06:57:38;15.20;;;10.43;;
16862;SDS011;52193;48.216;-1.698;2023-07-16T07:00:05;18.45;;;11.00;;
16862;SDS011;52193;48.216;-1.698;2023-07-16T07:02:35;14.85;;;9.88;;
16862;SDS011;52193;48.216;-1.698;2023-07-16T07:05:02;14.43;;;9.57;;
16862;SDS011;52193;48.216;-1.698;2023-07-16T07:07:30;14.93;;;9.90;;
16862;SDS011;52193;48.216;-1.698;2023-07-16T07:09:56;13.60;;;9.65;;
16862;SDS011;52193;48.216;-1.698;2023-07-16T07:12:23;11.95;;;8.88;;
16862;SDS011;52193;48.216;-1.698;2023-07-16T07:14:52;8.98;;;6.82;;
16862;SDS011;52193;48.216;-1.698;2023-07-16T07:17:19;5.65;;;5.13;;
16862;SDS011;52193;48.216;-1.698;2023-07-16T07:19:45;5.55;;;4.80;;
16862;SDS011;52193;48.216;-1.698;2023-07-16T07:22:12;4.53;;;4.13;;
16862;SDS011;52193;48.216;-1.698;2023-07-16T07:24:39;5.25;;;4.75;;
16862;SDS011;52193;48.216;-1.698;2023-07-16T07:27:06;6.75;;;5.53;;
16862;SDS011;52193;48.216;-1.698;2023-07-16T07:29:33;7.82;;;5.03;;
16862;SDS011;52193;48.216;-1.698;2023-07-16T07:32:01;5.43;;;4.93;;
16862;SDS011;52193;48.216;-1.698;2023-07-16T07:34:28;4.80;;;4.40;;
16862;SDS011;52193;48.216;-1.698;2023-07-16T07:36:55;6.65;;;5.38;;
16862;SDS011;52193;48.216;-1.698;2023-07-16T07:39:22;5.15;;;4.63;;
16862;SDS011;52193;48.216;-1.698;2023-07-16T07:41:49;7.18;;;5.75;;
16862;SDS011;52193;48.216;-1.698;2023-07-16T07:44:16;8.30;;;6.45;;
16862;SDS011;52193;48.216;-1.698;2023-07-16T07:46:43;5.75;;;5.10;;
16862;SDS011;52193;48.216;-1.698;2023-07-16T07:49:11;5.95;;;5.32;;
16862;SDS011;52193;48.216;-1.698;2023-07-16T07:51:38;8.48;;;5.40;;
16862;SDS011;52193;48.216;-1.698;2023-07-16T07:54:05;5.45;;;4.95;;
16862;SDS011;52193;48.216;-1.698;2023-07-16T07:56:32;6.90;;;5.15;;
16862;SDS011;52193;48.216;-1.698;2023-07-16T07:58:59;5.65;;;4.53;;
16862;SDS011;52193;48.216;-1.698;2023-07-16T08:01:26;4.63;;;4.15;;
16862;SDS011;52193;48.216;-1.698;2023-07-16T08:03:54;8.77;;;5.15;;
16862;SDS011;52193;48.216;-1.698;2023-07-16T08:06:23;5.97;;;4.43;;
16862;SDS011;52193;48.216;-1.698;2023-07-16T08:08:49;5.43;;;4.35;;
16862;SDS011;52193;48.216;-1.698;2023-07-16T08:11:16;4.35;;;3.72;;
16862;SDS011;52193;48.216;-1.698;2023-07-16T08:13:43;5.22;;;4.20;;
16862;SDS011;52193;48.216;-1.698;2023-07-16T08:16:10;4.03;;;3.67;;
16862;SDS011;52193;48.216;-1.698;2023-07-16T08:18:37;5.30;;;4.15;;
16862;SDS011;52193;48.216;-1.698;2023-07-16T08:21:04;4.63;;;3.60;;
16862;SDS011;52193;48.216;-1.698;2023-07-16T08:23:32;4.72;;;3.53;;
16862;SDS011;52193;48.216;-1.698;2023-07-16T08:25:59;6.43;;;3.30;;
16862;SDS011;52193;48.216;-1.698;2023-07-16T08:28:26;7.15;;;3.50;;
16862;SDS011;52193;48.216;-1.698;2023-07-16T08:30:53;3.97;;;3.10;;
16862;SDS011;52193;48.216;-1.698;2023-07-16T08:33:20;3.20;;;2.60;;
16862;SDS011;52193;48.216;-1.698;2023-07-16T08:35:47;4.75;;;3.55;;
16862;SDS011;52193;48.216;-1.698;2023-07-16T08:38:14;4.80;;;3.65;;
16862;SDS011;52193;48.216;-1.698;2023-07-16T08:40:42;4.28;;;2.83;;
16862;SDS011;52193;48.216;-1.698;2023-07-16T08:43:13;4.32;;;2.58;;
16862;SDS011;52193;48.216;-1.698;2023-07-16T08:45:43;5.13;;;3.10;;
16862;SDS011;52193;48.216;-1.698;2023-07-16T08:48:12;3.00;;;2.67;;
16862;SDS011;52193;48.216;-1.698;2023-07-16T08:50:39;3.80;;;2.80;;
16862;SDS011;52193;48.216;-1.698;2023-07-16T08:53:08;3.53;;;2.78;;
16862;SDS011;52193;48.216;-1.698;2023-07-16T08:55:35;3.70;;;2.78;;
16862;SDS011;52193;48.216;-1.698;2023-07-16T08:58:05;4.90;;;3.20;;
16862;SDS011;52193;48.216;-1.698;2023-07-16T09:00:33;3.13;;;2.63;;
16862;SDS011;52193;48.216;-1.698;2023-07-16T09:03:00;4.63;;;3.05;;
16862;SDS011;52193;48.216;-1.698;2023-07-16T09:05:28;2.92;;;2.30;;
16862;SDS011;52193;48.216;-1.698;2023-07-16T09:07:55;3.15;;;2.72;;
16862;SDS011;52193;48.216;-1.698;2023-07-16T09:10:22;7.47;;;3.17;;
16862;SDS011;52193;48.216;-1.698;2023-07-16T09:12:49;3.92;;;3.00;;
16862;SDS011;52193;48.216;-1.698;2023-07-16T09:15:18;3.97;;;3.35;;
16862;SDS011;52193;48.216;-1.698;2023-07-16T09:17:46;5.97;;;3.20;;
16862;SDS011;52193;48.216;-1.698;2023-07-16T09:20:14;3.60;;;2.88;;
16862;SDS011;52193;48.216;-1.698;2023-07-16T09:22:41;2.88;;;2.55;;
16862;SDS011;52193;48.216;-1.698;2023-07-16T09:25:08;3.72;;;2.67;;
16862;SDS011;52193;48.216;-1.698;2023-07-16T09:27:35;3.67;;;2.90;;
16862;SDS011;52193;48.216;-1.698;2023-07-16T09:30:03;4.35;;;2.75;;
16862;SDS011;52193;48.216;-1.698;2023-07-16T09:32:35;6.00;;;3.03;;
16862;SDS011;52193;48.216;-1.698;2023-07-16T09:35:06;6.97;;;3.60;;
16862;SDS011;52193;48.216;-1.698;2023-07-16T09:37:33;4.93;;;3.42;;
16862;SDS011;52193;48.216;-1.698;2023-07-16T09:40:03;4.50;;;3.63;;
16862;SDS011;52193;48.216;-1.698;2023-07-16T09:42:33;5.05;;;4.55;;
16862;SDS011;52193;48.216;-1.698;2023-07-16T09:45:03;6.95;;;4.93;;
16862;SDS011;52193;48.216;-1.698;2023-07-16T09:47:32;4.97;;;4.57;;
16862;SDS011;52193;48.216;-1.698;2023-07-16T09:50:01;5.45;;;5.07;;
16862;SDS011;52193;48.216;-1.698;2023-07-16T09:52:29;6.28;;;5.88;;
16862;SDS011;52193;48.216;-1.698;2023-07-16T09:54:57;6.55;;;6.05;;
16862;SDS011;52193;48.216;-1.698;2023-07-16T09:57:27;6.60;;;6.13;;
16862;SDS011;52193;48.216;-1.698;2023-07-16T09:59:58;7.57;;;6.97;;
16862;SDS011;52193;48.216;-1.698;2023-07-16T10:02:30;6.80;;;6.30;;
16862;SDS011;52193;48.216;-1.698;2023-07-16T10:05:02;7.25;;;6.75;;
16862;SDS011;52193;48.216;-1.698;2023-07-16T10:07:37;7.03;;;6.50;;
16862;SDS011;52193;48.216;-1.698;2023-07-16T10:10:07;7.80;;;7.22;;
16862;SDS011;52193;48.216;-1.698;2023-07-16T10:12:35;7.25;;;6.72;;
16862;SDS011;52193;48.216;-1.698;2023-07-16T10:15:03;6.72;;;6.32;;
16862;SDS011;52193;48.216;-1.698;2023-07-16T10:17:31;7.03;;;6.43;;
16862;SDS011;52193;48.216;-1.698;2023-07-16T10:20:00;8.50;;;7.47;;
16862;SDS011;52193;48.216;-1.698;2023-07-16T10:22:33;7.85;;;7.18;;
16862;SDS011;52193;48.216;-1.698;2023-07-16T10:25:02;7.72;;;7.13;;
16862;SDS011;52193;48.216;-1.698;2023-07-16T10:27:30;7.70;;;7.00;;
16862;SDS011;52193;48.216;-1.698;2023-07-16T10:29:58;7.88;;;7.30;;
16862;SDS011;52193;48.216;-1.698;2023-07-16T10:32:28;6.55;;;6.15;;
16862;SDS011;52193;48.216;-1.698;2023-07-16T10:34:56;6.60;;;6.20;;
16862;SDS011;52193;48.216;-1.698;2023-07-16T10:37:24;7.00;;;6.50;;
16862;SDS011;52193;48.216;-1.698;2023-07-16T10:39:53;6.50;;;6.00;;
16862;SDS011;52193;48.216;-1.698;2023-07-16T10:42:21;6.05;;;5.22;;
16862;SDS011;52193;48.216;-1.698;2023-07-16T10:44:50;5.28;;;4.90;;
16862;SDS011;52193;48.216;-1.698;2023-07-16T10:47:24;5.72;;;5.07;;
16862;SDS011;52193;48.216;-1.698;2023-07-16T10:49:51;5.55;;;5.05;;
16862;SDS011;52193;48.216;-1.698;2023-07-16T10:52:19;4.45;;;4.15;;
16862;SDS011;52193;48.216;-1.698;2023-07-16T10:54:48;4.28;;;3.95;;
16862;SDS011;52193;48.216;-1.698;2023-07-16T10:57:17;4.32;;;3.92;;
16862;SDS011;52193;48.216;-1.698;2023-07-16T10:59:44;3.67;;;3.47;;
16862;SDS011;52193;48.216;-1.698;2023-07-16T11:02:13;3.40;;;3.20;;
16862;SDS011;52193;48.216;-1.698;2023-07-16T11:04:42;3.83;;;3.38;;
16862;SDS011;52193;48.216;-1.698;2023-07-16T11:07:10;3.35;;;3.15;;
16862;SDS011;52193;48.216;-1.698;2023-07-16T11:09:42;3.45;;;3.17;;
16862;SDS011;52193;48.216;-1.698;2023-07-16T11:12:11;3.10;;;3.00;;
16862;SDS011;52193;48.216;-1.698;2023-07-16T11:14:42;3.22;;;3.13;;
16862;SDS011;52193;48.216;-1.698;2023-07-16T11:17:10;3.17;;;2.97;;
16862;SDS011;52193;48.216;-1.698;2023-07-16T11:19:37;3.10;;;3.00;;
16862;SDS011;52193;48.216;-1.698;2023-07-16T11:22:06;3.17;;;2.97;;
16862;SDS011;52193;48.216;-1.698;2023-07-16T11:24:37;3.20;;;2.90;;
16862;SDS011;52193;48.216;-1.698;2023-07-16T11:27:06;2.70;;;2.50;;
16862;SDS011;52193;48.216;-1.698;2023-07-16T11:29:40;2.70;;;2.60;;
16862;SDS011;52193;48.216;-1.698;2023-07-16T11:32:11;2.80;;;2.70;;
16862;SDS011;52193;48.216;-1.698;2023-07-16T11:34:50;4.25;;;3.00;;
16862;SDS011;52193;48.216;-1.698;2023-07-16T11:37:18;3.00;;;2.80;;
16862;SDS011;52193;48.216;-1.698;2023-07-16T11:39:46;3.33;;;3.13;;
16862;SDS011;52193;48.216;-1.698;2023-07-16T11:42:14;2.95;;;2.75;;
16862;SDS011;52193;48.216;-1.698;2023-07-16T11:44:48;2.95;;;2.75;;
16862;SDS011;52193;48.216;-1.698;2023-07-16T11:47:15;2.08;;;1.98;;
16862;SDS011;52193;48.216;-1.698;2023-07-16T11:49:42;1.95;;;1.83;;
16862;SDS011;52193;48.216;-1.698;2023-07-16T11:52:09;1.80;;;1.70;;
16862;SDS011;52193;48.216;-1.698;2023-07-16T11:54:36;2.03;;;1.30;;
16862;SDS011;52193;48.216;-1.698;2023-07-16T11:57:03;1.40;;;1.30;;
16862;SDS011;52193;48.216;-1.698;2023-07-16T11:59:32;1.17;;;1.10;;
16862;SDS011;52193;48.216;-1.698;2023-07-16T12:01:58;1.40;;;1.17;;
16862;SDS011;52193;48.216;-1.698;2023-07-16T12:04:26;1.77;;;1.67;;
16862;SDS011;52193;48.216;-1.698;2023-07-16T12:06:53;1.67;;;1.20;;
16862;SDS011;52193;48.216;-1.698;2023-07-16T12:09:20;1.30;;;1.17;;
16862;SDS011;52193;48.216;-1.698;2023-07-16T12:11:47;1.40;;;1.00;;
16862;SDS011;52193;48.216;-1.698;2023-07-16T12:14:13;1.27;;;1.10;;
16862;SDS011;52193;48.216;-1.698;2023-07-16T12:16:42;1.65;;;1.20;;
16862;SDS011;52193;48.216;-1.698;2023-07-16T12:19:09;2.78;;;1.25;;
16862;SDS011;52193;48.216;-1.698;2023-07-16T12:21:36;1.48;;;0.90;;
16862;SDS011;52193;48.216;-1.698;2023-07-16T12:24:03;1.40;;;1.30;;
16862;SDS011;52193;48.216;-1.698;2023-07-16T12:26:31;1.50;;;1.20;;
16862;SDS011;52193;48.216;-1.698;2023-07-16T12:28:58;1.67;;;1.20;;
16862;SDS011;52193;48.216;-1.698;2023-07-16T12:31:27;1.50;;;1.40;;
16862;SDS011;52193;48.216;-1.698;2023-07-16T12:33:56;2.03;;;1.23;;
16862;SDS011;52193;48.216;-1.698;2023-07-16T12:36:23;3.65;;;1.63;;
16862;SDS011;52193;48.216;-1.698;2023-07-16T12:38:50;1.52;;;1.40;;
16862;SDS011;52193;48.216;-1.698;2023-07-16T12:41:16;2.17;;;1.70;;
16862;SDS011;52193;48.216;-1.698;2023-07-16T12:43:43;1.98;;;1.40;;
16862;SDS011;52193;48.216;-1.698;2023-07-16T12:46:12;1.95;;;1.50;;
16862;SDS011;52193;48.216;-1.698;2023-07-16T12:48:39;2.53;;;1.73;;
16862;SDS011;52193;48.216;-1.698;2023-07-16T12:51:07;2.55;;;1.95;;
16862;SDS011;52193;48.216;-1.698;2023-07-16T12:53:34;2.13;;;1.70;;
16862;SDS011;52193;48.216;-1.698;2023-07-16T12:56:01;2.45;;;1.50;;
16862;SDS011;52193;48.216;-1.698;2023-07-16T12:58:28;3.28;;;1.63;;
16862;SDS011;52193;48.216;-1.698;2023-07-16T13:00:55;3.45;;;1.60;;
16862;SDS011;52193;48.216;-1.698;2023-07-16T13:03:22;1.85;;;1.42;;
16862;SDS011;52193;48.216;-1.698;2023-07-16T13:05:49;1.70;;;1.60;;
16862;SDS011;52193;48.216;-1.698;2023-07-16T13:08:17;1.98;;;1.38;;
16862;SDS011;52193;48.216;-1.698;2023-07-16T13:10:44;1.80;;;1.20;;
16862;SDS011;52193;48.216;-1.698;2023-07-16T13:13:11;1.50;;;1.23;;
16862;SDS011;52193;48.216;-1.698;2023-07-16T13:15:38;2.50;;;1.30;;
16862;SDS011;52193;48.216;-1.698;2023-07-16T13:18:05;2.08;;;1.88;;
16862;SDS011;52193;48.216;-1.698;2023-07-16T13:20:31;1.60;;;1.50;;
16862;SDS011;52193;48.216;-1.698;2023-07-16T13:22:58;2.42;;;1.70;;
16862;SDS011;52193;48.216;-1.698;2023-07-16T13:25:27;3.40;;;1.70;;
16862;SDS011;52193;48.216;-1.698;2023-07-16T13:27:54;1.73;;;1.60;;
16862;SDS011;52193;48.216;-1.698;2023-07-16T13:30:21;2.25;;;1.65;;
16862;SDS011;52193;48.216;-1.698;2023-07-16T13:32:48;1.95;;;1.40;;
16862;SDS011;52193;48.216;-1.698;2023-07-16T13:35:15;2.53;;;1.83;;
16862;SDS011;52193;48.216;-1.698;2023-07-16T13:37:42;2.35;;;1.50;;
16862;SDS011;52193;48.216;-1.698;2023-07-16T13:40:11;3.25;;;1.88;;
16862;SDS011;52193;48.216;-1.698;2023-07-16T13:42:40;2.20;;;1.80;;
16862;SDS011;52193;48.216;-1.698;2023-07-16T13:45:07;2.65;;;1.70;;
16862;SDS011;52193;48.216;-1.698;2023-07-16T13:47:34;2.45;;;2.03;;
16862;SDS011;52193;48.216;-1.698;2023-07-16T13:50:01;2.42;;;1.90;;
16862;SDS011;52193;48.216;-1.698;2023-07-16T13:52:29;2.78;;;2.13;;
16862;SDS011;52193;48.216;-1.698;2023-07-16T13:54:56;2.42;;;1.88;;
16862;SDS011;52193;48.216;-1.698;2023-07-16T13:57:22;3.00;;;2.17;;
16862;SDS011;52193;48.216;-1.698;2023-07-16T13:59:51;3.50;;;2.20;;
16862;SDS011;52193;48.216;-1.698;2023-07-16T14:02:18;2.42;;;2.10;;
16862;SDS011;52193;48.216;-1.698;2023-07-16T14:04:45;3.30;;;2.45;;
16862;SDS011;52193;48.216;-1.698;2023-07-16T14:07:12;5.90;;;2.53;;
16862;SDS011;52193;48.216;-1.698;2023-07-16T14:09:39;6.82;;;2.60;;
16862;SDS011;52193;48.216;-1.698;2023-07-16T14:12:06;4.10;;;2.50;;
16862;SDS011;52193;48.216;-1.698;2023-07-16T14:14:33;4.55;;;2.97;;
16862;SDS011;52193;48.216;-1.698;2023-07-16T14:17:01;2.80;;;2.28;;
16862;SDS011;52193;48.216;-1.698;2023-07-16T14:19:29;4.82;;;2.58;;
16862;SDS011;52193;48.216;-1.698;2023-07-16T14:21:56;3.25;;;2.85;;
16862;SDS011;52193;48.216;-1.698;2023-07-16T14:24:22;2.92;;;2.70;;
16862;SDS011;52193;48.216;-1.698;2023-07-16T14:26:49;5.18;;;3.20;;